AirNav   Duncan Aviation - Near you to keep you flying
 
 1537 users online  

1WA9 Friday West Airport
Friday Harbor, Washington, USA

GOING TO FRIDAY HARBOR?


FAA INFORMATION EFFECTIVE 04 NOVEMBER 2021

Location

FAA Identifier: 1WA9
Lat/Long: 48-32-06.3570N 123-02-41.6500W
48-32.105950N 123-02.694167W
48.5350992,-123.0449028
(estimated)
Elevation: 150 ft. / 46 m (estimated)
Variation: 21E (1985)
From city: 1 mile W of FRIDAY HARBOR, WA
Time zone: UTC -8 (UTC -7 during Daylight Saving Time)
Zip code: 98250

Airport Operations

Airport use: Private use. Permission required prior to landing
Activation date: 10/1973
Control tower: no
ARTCC: SEATTLE CENTER
FSS: SEATTLE FLIGHT SERVICE STATION
Attendance: UNATNDD
Wind indicator: yes
Segmented circle: no
Lights: FOR RWY LGTS, KEY 123.1 5 SECONDS.

Airport Communications

WX ASOS at FHR (1.1 nm SE): 135.675 (360-378-8491)
WX AWOS-3 at ORS (12 nm NE): 135.425 (360-376-6045)
WX ASOS at NUW (19 nm SE): PHONE 360-257-8813

Nearby radio navigation aids

VOR radial/distance  VOR name  Freq  Var
YYJr106/20.9VICTORIA VOR/DME113.7017E
CVVr305/21.6PENN COVE VOR/DME117.2019E
HUHr197/30.7WHATCOM VORTAC113.0020E
YVRr156/32.8VANCOUVER VOR/DME115.9017E

 
NDB name  Hdg/Dist  Freq  Var  ID
FRIDAY HARBOR312/1.628417EFHR ..-. .... .-.
SKAGIT/BAY VIEW263/25.224016EBVS -... ...- ...
EDIZ HOOK014/27.733817ENOW -. --- .--

Airport Services

Airframe service: NONE
Powerplant service: NONE

Runway Information

Runway 15/33

Dimensions: 2100 x 60 ft. / 640 x 18 m
Surface: gravel, in good condition
Runway edge lights: low intensity
RUNWAY 15  RUNWAY 33
Traffic pattern: rightleft
Obstructions: trees, 20:1 slope to clear10 ft. road, 40 ft. from runway, 3:1 slope to clear

Airport Ownership and Management from official FAA records

Ownership: Privately-owned
Owner: MAURICE LIEBMAN
999 WEST SIDE RD N
FRIDAY HARBOR, WA 98250
Phone 206-378-5521
Manager: MAURICE LIEBMAN
999 WESTSIDE RD N
FRIDAY HARBOR, WA 98250
Phone 206-378-5521

Airport Operational Statistics

Aircraft based on the field: 3
Single engine airplanes: 3
    
Aircraft operations: 215/year *
47% transient general aviation
47% local general aviation
7% air taxi
* for 12-month period ending 20 May 1982

Additional Remarks

RWY SFC MAY BE SOFT WHEN WET.
FOR CD CTC SEATTLE ARTCC AT 253-351-3694.

Instrument Procedures

There are no published instrument procedures at 1WA9.

Some nearby airports with instrument procedures:

KFHR - Friday Harbor Airport (1 nm SE)
KORS - Orcas Island Airport (12 nm NE)
KNUW - Whidbey Island Naval Air Station (Ault Field) (19 nm SE)
KOKH - AJ Eisenberg Airport (23 nm SE)
KBVS - Skagit Regional Airport (25 nm E)
 
Loc | Ops | Rwys | IFR | FBO | Links
Com | Nav | Svcs | Stats | Notes
Area around 1WA9 (Friday West Airport)
 
Road maps at: MapQuest Bing Google
 
Aerial photo
No photo
 
Sectional chart

 
Airport distance calculator
Flying to Friday West Airport? Find the distance to fly.

From to 1WA9

Sunrise and sunset
Times for 29-Nov-2021
 Local
(UTC-8)
 Zulu
(UTC)
Morning civil twilight07:0615:06
Sunrise07:4215:42
Sunset16:2000:20
Evening civil twilight16:5500:55

Current date and time
Zulu (UTC)  30-Nov-2021 00:59:44
Local (UTC-8)  29-Nov-2021 16:59:44
 
METAR
KFHR 300053Z AUTO 00000KT 10SM BKN021 11/09 A3021 RMK AO2 SLP228 T01060094 TSNO
CWZO 
8nm W 
300000Z AUTO 19008KT RMK AO1
CWYJ 
11nm SW 
300000Z AUTO 08001KT 10/10 RMK AO1 SLP225 T01000100 58007
KORS 
11nm NE 
300055Z AUTO 17009KT 10SM BKN060 13/11 A3018 RMK AO2
CWLM 
13nm SW 
300000Z AUTO 10005KT 10/10 RMK AO1 SLP221 T00990095 58007
CYWH 
13nm SW 
300000Z VRB02KT 15SM FEW002 BKN055 BKN200 11/10 A3019 RMK SF2SC3CI2 VIS SW-W 3 SLP226
CWEZ 
14nm N 
300000Z AUTO 24008KT 11/10 RMK AO1 SLP220 T01080097 58006
CWPF 
16nm SW 
300045Z AUTO 32001KT 10/09 RMK AO1 SLP224 T00960090 55004
CYYJ 
17nm NW 
300000Z 15009KT 8SM FEW002 SCT044 BKN068 BKN180 11/11 A3018 RMK ST1SC3AC3AC1 ST TR SLP221
KNUW 
19nm SE 
300015Z 12007KT 10SM FEW016 BKN025 BKN075 OVC180 13/10 A3022 RMK AO2 T01330100 $
TAF
CYWH 
13nm SW 
292108Z 2921/3005 12005KT 2SM BR SCT002 BKN012 BECMG 2921/2923 6SM BR FEW006 SCT012 BKN025 FM292300 12005KT P6SM FEW006 SCT015 BKN025 TEMPO 2923/3005 4SM BR SCT006 BKN015 RMK NXT FCST BY 300000Z
CYYJ 
17nm NW 
292105Z 2921/3018 13012KT 1/4SM FG VV002 BECMG 2921/2923 P6SM NSW SCT002 BKN060 FM292300 16008KT P6SM FEW006 SCT020 BKN040 TEMPO 2923/3009 5SM -SHRA BR SCT006 BKN020 FM300900 16007KT P6SM -RA SCT012 BKN025 OVC040 TEMPO 3009/3014 4SM -RA BR FEW004 BKN008 OVC020 FM301400 16010KT 6SM -RA BR SCT005 BKN012 OVC025 TEMPO 3014/3018 2SM -RA BR BKN005 OVC012 RMK NXT FCST BY 300000Z
KNUW 
19nm SE 
2923/3023 15008KT 9999 VCSH SCT015 SCT035 BKN075 BKN180 OVC250 QNH3021INS TEMPO 3003/3009 12009KT 9999 SCT005 BKN015 OVC070 FM300700 VRB06KT 9000 BR BCFG SCT005 BKN050 OVC120 QNH3013INS TEMPO 3007/3013 17007KT 3200 -DZ BR BKN004 OVC010 FM301300 16012KT 6000 -RA BR SCT004 BKN015 OVC050 640809 540109 QNH3012INS FM301700 15020G32KT 8000 -RA BR FEW010 SCT033 OVC045 640906 540009 QNH3009INS TEMPO 3017/3023 15015G25KT 3200 RA BR SCT010 BKN015 OVC032 T14/2922Z T09/3013Z FS30046
NOTAMs
Click for the latest NOTAMs
NOTAMs are issued by the DoD/FAA and will open in a separate window not controlled by AirNav.

 

 
 

Would you like to see your business listed on this page?

 If your business provides an interesting product or service to pilots, flight crews, aircraft, or users of the Friday West Airport, you should consider listing it here.  To start the listing process, click on the button below
 
Add a business
 

Other Pages about Friday West Airport

Update a link
 
Copyright © AirNav, LLC. All rights reserved. Privacy Policy  Contact